Aeroporto :







RITROVATECI SU...

 
LOGIN :

Iscrizione | Disclaimer

   EN    FR    IT 

 









Sommario :    VFR   VFR Marginale   IFR   IFR Intensivo   IFR Molto Intensivo
Visibilità : 
Base nubi : 
>= 8 km
>= 3000ft
5 / 8 km
1000 / 3000 ft
1500m / 5 km
500 / 1000 ft
800 / 1500m
200 / 500 ft
< 800m
< 200 ft
Simboli :   Temporali  Nebbia  Neve Forte  Precipitazioni Forti  Vento > 20 kt






- Altitudine del aeroporto : 357 ft
- Codice IATA : YSJ


CYSJ - Saint John

ULTIMO METAR :
  • 272300Z 31009KT 10SM -SN OVC025 00/M01 A2944 RMK SC8 SLP977

METARs OBSOLETI :
  • 272200Z 30005KT 10SM -SN OVC020 00/M00 A2943 RMK SC8 SLP973
  • 272132Z 34008KT 10SM -SN BKN020 OVC040 01/M00 A2942 RMK SC5SC3 SLP970
  • 272100Z 29004KT 250V320 15SM FEW015 OVC040 02/M01 A2941 RMK SC2SC6 SLP965
  • 272047Z 26003KT 15SM BKN028 OVC042 02/M01 A2941 RMK SC5SC3 SLP964

TAF TAF CYSJ
Valido dal 27 a 18 ore il 28 a 06 ore UTC


271738Z 2718/2806 26012KT P6SM BKN030
TEMPO 2721/2801 3SM -SHRASN OVC020
BECMG 2722/2724 33013KT
FM280100 33013KT 6SM -SN BKN020 OVC040 RMK NXT FCST BY 280000Z



MetMap, La meteo Aeronautica in un colpo d'occhio ! - Copyright ORBIFLY Dicembre 2007 - Disclaimer

ORBIFLY MET'MAP TEAM :

Programmazione e sviluppo : Alexandra Zaïnal
Concezione : Baudouin d'Aumeries
Aiuto per la programmazione : Marc-Olivier Méhu
Supporto tecnico e logistico : Manuel Goepfert
Aiuto per la traduzione : Arnaldo La Scala

Contatto : metmap@orbifly.com




FONTI E CREDITI :

   NOAA